Airfield :







YOU CAN JOIN US ON...

 
LOGIN :

Register | Disclaimer

   EN    FR    IT 

 









Legend :    VFR   Marginal VFR   IFR   Intensive IFR   Very Intensive IFR
Visi :
Ceiling :
>= 8 km
>= 3000ft
5 to 8 km
1000 to 3000 ft
1500m to 5 km
500 to 1000 ft
800 to 1500m
200 to 500 ft
< 800m
< 200 ft
Symbols :   Thunderstorms  Fog  Heavy snow  Heavy precipitations  Wind > 20 kt






- Airport Elevation : 193 ft
- IATA code : ZBF


CZBF - Bathurst

CURRENT METAR :
  • 241100Z AUTO 25004KT 9SM CLR M12/M13 A3001 RMK SLP168

EXPIRED METARs :
  • 241000Z AUTO 23002KT 9SM CLR M11/M12 A3001 RMK SLP169
  • 240900Z AUTO 00000KT 9SM CLR M10/M12 A3002 RMK SLP171

TAF TAF CZBF
Valid from the 24 at 10:00 until the 24 at 22:00 UTC


240938Z 2410/2422 21005KT P6SM SKC
BECMG 2413/2415 18012KT RMK FCST BASED ON AUTO OBS. NXT FCST BY 241400Z



MET'MAP, your aeronautical weather chart ! - Copyright ORBIFLY December 2007 - Disclaimer

ORBIFLY MET'MAP TEAM :

Programming & Development : Alexandra Zaïnal
Concept & original design : Baudouin d'Aumeries
Assistance for programming : Marc-Olivier Méhu
Technical & hardware support : Manuel Goepfert

Contact : metmap@orbifly.com




SOURCES & CREDITS :

   NOAA